Lihue Information

FAA: LIH - ICAO: PHLI

Lihue (Airport) Location

State Hawaii
County Kauai
City Lihue
Lihue (Airport) is 2 miles east of Lihue, HI.
Latitude 21-58-33.5383N
Longitude 159-20-20.2478W
Elevation 152ft

Lihue METARs

METAR PHLI 200453Z 03011KT 10SM SCT028 23/19 A3007 RMK AO2 SLP180 T02330189
Altimeter 30.07"
Temperature 23.3°C (73.9°F)
Wind 30° at 11KT
Clouds scattered at 2,800ft
Visibility 10.0mi
Time observed: 2021-10-20T04:53:00Z

Lihue (Airport) Details

Status Operational
Activation March 1950
Ownership Public
Usage Public
Chart HAWAIIAN ISLANDS
ATC on-site Yes
Beacon schedule sunset-sunrise
Beacon color clear green

Lihue (Airport) Contacts

Owner HAWAII ST ARPTS DIV
Owner address HONOLULU INTL ARPT, HONOLULU, HI 96819
Owner phone 808-838-8600
Manager SEAN COMBS
Manager address 5-3541 KUHIO HWY STE 201, PO BOX 3040, PRINCEVILLE, HI 96722
Manager phone 808-826-3040

Lihue Radio Frequencies

Lihue (Airport) Radio Frequencies

UNICOM N/A
Common traffic advisory frequency (CTAF) 118.9